Time;durP1;ratioP1;P1;durP2;ratioP2;P2;SDS_P1;SDS_P2;PMS_P1;PMS_P2;Temp;Humidity;BMP_temperature;BMP_pressure;BME280_temperature;BME280_humidity;BME280_pressure;Samples;Min_cycle;Max_cycle;Signal;HPM_P1;HPM_P2
2024/02/08 00:01:05;;;;;;;25.65;12.57;;;;;;;1.85;100.00;99283.41;10429538;28;20500;-82
2024/02/08 00:06:10;;;;;;;29.05;12.05;;;;;;;1.87;100.00;99273.59;10454922;28;20500;-82
2024/02/08 00:11:13;;;;;;;32.97;13.02;;;;;;;1.88;100.00;99268.16;10441576;28;20056;-81
2024/02/08 00:16:16;;;;;;;43.88;18.00;;;;;;;1.93;100.00;99255.50;10449337;28;20048;-81
2024/02/08 00:21:21;;;;;;;33.22;15.40;;;;;;;2.00;100.00;99273.63;10428314;28;20512;-80
2024/02/08 00:26:24;;;;;;;30.65;14.82;;;;;;;2.03;100.00;99268.16;10453355;28;20056;-79
2024/02/08 00:31:27;;;;;;;37.90;13.65;;;;;;;1.99;100.00;99267.50;10439210;28;21483;-80
2024/02/08 00:36:31;;;;;;;29.80;14.35;;;;;;;2.00;100.00;99265.69;10414043;28;20167;-80
2024/02/08 00:41:36;;;;;;;28.00;12.57;;;;;;;1.97;100.00;99269.38;10420825;28;20049;-80
2024/02/08 00:46:39;;;;;;;29.90;12.57;;;;;;;1.92;100.00;99274.13;10383900;28;20049;-80
2024/02/08 00:51:43;;;;;;;24.65;11.90;;;;;;;1.93;100.00;99279.34;10402887;28;20969;-79
2024/02/08 00:56:46;;;;;;;29.75;12.75;;;;;;;1.92;100.00;99268.81;10395668;28;20062;-81
2024/02/08 01:01:49;;;;;;;24.58;12.93;;;;;;;1.85;100.00;99265.72;10385134;28;20536;-82
2024/02/08 01:06:55;;;;;;;25.90;12.88;;;;;;;1.83;100.00;99250.88;10384151;28;20045;-81
2024/02/08 01:12:01;;;;;;;28.00;13.35;;;;;;;1.83;100.00;99238.47;10372510;28;20048;-81
2024/02/08 01:17:05;;;;;;;27.45;12.80;;;;;;;1.74;100.00;99247.00;10407616;28;20051;-80
2024/02/08 01:22:11;;;;;;;29.25;13.45;;;;;;;1.73;100.00;99245.31;10407302;28;20053;-79
2024/02/08 01:27:14;;;;;;;23.83;12.88;;;;;;;1.78;100.00;99247.66;10373903;28;20045;-82
2024/02/08 01:32:17;;;;;;;28.17;12.50;;;;;;;1.80;100.00;99245.78;10376918;28;20531;-80
2024/02/08 01:37:22;;;;;;;35.72;14.43;;;;;;;1.83;100.00;99245.56;10379222;28;20053;-79
2024/02/08 01:42:25;;;;;;;23.48;12.85;;;;;;;1.83;100.00;99257.00;10382748;28;20132;-80
2024/02/08 01:47:28;;;;;;;26.60;12.77;;;;;;;1.85;100.00;99259.56;10381276;28;20045;-82
2024/02/08 01:52:33;;;;;;;27.52;13.43;;;;;;;1.80;100.00;99256.38;10385285;28;20037;-80
2024/02/08 01:57:37;;;;;;;21.52;12.45;;;;;;;1.61;100.00;99273.38;10406390;28;20113;-78
2024/02/08 02:02:42;;;;;;;24.55;12.77;;;;;;;1.44;100.00;99273.56;10415480;28;20052;-81
2024/02/08 02:07:48;;;;;;;27.45;13.38;;;;;;;1.44;100.00;99261.19;10388405;28;20504;-81
2024/02/08 02:12:52;;;;;;;26.90;12.57;;;;;;;1.45;100.00;99254.09;10415618;28;20050;-80
2024/02/08 02:17:55;;;;;;;27.42;13.38;;;;;;;1.53;100.00;99264.22;10396552;28;20049;-81
2024/02/08 02:23:01;;;;;;;29.08;14.50;;;;;;;1.62;100.00;99259.22;10424242;28;20032;-79
2024/02/08 02:28:09;;;;;;;29.35;13.43;;;;;;;1.65;100.00;99244.94;10419777;28;20048;-81
2024/02/08 02:33:14;;;;;;;31.48;13.52;;;;;;;1.63;100.00;99226.50;10396206;28;20099;-81
2024/02/08 02:38:23;;;;;;;26.50;11.88;;;;;;;1.65;100.00;99231.72;10403538;28;20045;-81
2024/02/08 02:43:27;;;;;;;27.13;13.95;;;;;;;1.66;100.00;99230.75;10387304;28;20052;-80
2024/02/08 02:48:31;;;;;;;29.55;13.85;;;;;;;1.64;100.00;99230.84;10395086;28;20053;-81
2024/02/08 02:53:36;;;;;;;28.30;13.15;;;;;;;1.67;100.00;99240.38;10396181;28;20054;-79
2024/02/08 02:58:39;;;;;;;24.27;12.27;;;;;;;1.63;100.00;99246.84;10392297;28;20056;-79
2024/02/08 03:03:42;;;;;;;26.20;12.60;;;;;;;1.58;100.00;99239.16;10399362;28;20053;-80
2024/02/08 03:08:47;;;;;;;22.55;12.88;;;;;;;1.57;100.00;99237.47;10392790;28;20187;-81
2024/02/08 03:13:51;;;;;;;27.00;12.85;;;;;;;1.51;100.00;99237.88;10393408;28;20044;-80
2024/02/08 03:18:56;;;;;;;25.13;13.18;;;;;;;1.49;100.00;99240.59;10396761;28;20048;-81
2024/02/08 03:24:01;;;;;;;25.30;13.23;;;;;;;1.45;100.00;99225.88;10404400;28;20529;-80
2024/02/08 03:29:04;;;;;;;25.25;13.77;;;;;;;1.46;100.00;99235.50;10402900;28;20052;-82
2024/02/08 03:34:08;;;;;;;27.80;12.52;;;;;;;1.50;100.00;99239.63;10391707;28;20052;-81
2024/02/08 03:39:24;;;;;;;30.88;13.75;;;;;;;1.43;100.00;99226.91;10384148;28;20301;-81
2024/02/08 03:44:30;;;;;;;27.02;13.25;;;;;;;1.38;100.00;99216.59;10395587;28;20057;-82
2024/02/08 03:49:33;;;;;;;25.02;14.18;;;;;;;1.34;100.00;99208.91;10395841;28;20535;-81
2024/02/08 03:54:39;;;;;;;34.13;14.00;;;;;;;1.32;100.00;99201.09;10407354;28;20067;-81
2024/02/08 03:59:42;;;;;;;33.35;14.43;;;;;;;1.32;100.00;99208.16;10406206;28;20049;-79
2024/02/08 04:04:50;;;;;;;30.35;13.43;;;;;;;1.32;100.00;99208.16;10415089;28;20071;-81
2024/02/08 04:10:10;;;;;;;29.02;13.43;;;;;;;1.35;100.00;99208.84;10419181;28;20046;-81
2024/02/08 04:58:09;;;;;;;31.45;14.30;;;;;;;1.26;100.00;99191.75;10435487;28;20051;-80
2024/02/08 05:03:37;;;;;;;35.97;15.45;;;;;;;1.34;100.00;99185.97;10439696;28;20571;-79
2024/02/08 05:08:41;;;;;;;29.60;14.93;;;;;;;1.34;100.00;99203.63;10432902;28;20079;-81
2024/02/08 05:13:49;;;;;;;34.85;14.80;;;;;;;1.33;100.00;99204.59;10451416;28;20056;-80
2024/02/08 05:18:55;;;;;;;27.30;14.27;;;;;;;1.38;100.00;99189.28;10396271;28;20598;-81
2024/02/08 05:23:59;;;;;;;31.00;14.32;;;;;;;1.37;100.00;99176.97;10377201;28;20048;-79
2024/02/08 05:29:03;;;;;;;32.17;14.10;;;;;;;1.37;100.00;99177.84;10379881;28;20533;-81
2024/02/08 05:34:07;;;;;;;30.42;13.70;;;;;;;1.37;100.00;99161.97;10385388;28;20045;-79
2024/02/08 05:39:23;;;;;;;29.58;13.40;;;;;;;1.35;100.00;99163.00;10390775;28;20049;-80
2024/02/08 05:44:30;;;;;;;27.08;14.48;;;;;;;1.35;100.00;99177.09;10389672;28;20052;-80
2024/02/08 05:49:36;;;;;;;30.60;14.13;;;;;;;1.42;100.00;99185.47;10405820;28;20102;-84
2024/02/08 05:54:45;;;;;;;31.10;13.75;;;;;;;1.48;100.00;99185.09;10407166;28;20053;-81
2024/02/08 05:59:54;;;;;;;22.42;13.10;;;;;;;1.49;100.00;99158.56;10435527;28;20512;-80
2024/02/08 06:05:08;;;;;;;35.72;14.02;;;;;;;1.46;100.00;99161.38;10448258;28;20849;-79
2024/02/08 06:10:14;;;;;;;32.72;14.10;;;;;;;1.47;100.00;99149.84;10445820;28;20084;-80
2024/02/08 06:15:24;;;;;;;36.20;15.43;;;;;;;1.44;100.00;99142.09;10442396;28;20598;-80
2024/02/08 06:20:36;;;;;;;27.65;13.82;;;;;;;1.53;100.00;99155.69;10439291;28;20044;-80
2024/02/08 06:25:45;;;;;;;26.55;13.45;;;;;;;1.53;100.00;99158.34;10433438;28;20561;-81
2024/02/08 06:30:49;;;;;;;33.88;13.80;;;;;;;1.47;100.00;99163.09;10448136;28;20037;-80
2024/02/08 06:35:56;;;;;;;24.00;12.90;;;;;;;1.47;100.00;99172.81;10454092;28;20126;-79
2024/02/08 06:41:04;;;;;;;41.20;14.93;;;;;;;1.46;100.00;99158.75;10442465;28;20041;-80
2024/02/08 06:46:17;;;;;;;40.10;15.90;;;;;;;1.31;100.00;99159.69;10469491;28;20055;-81
2024/02/08 07:40:01;;;;;;;39.78;19.25;;;;;;;1.53;100.00;99151.25;10405241;28;20059;-80
2024/02/08 07:45:06;;;;;;;36.85;17.92;;;;;;;1.56;100.00;99159.00;10404978;28;20045;-81
2024/02/08 07:50:10;;;;;;;37.33;17.45;;;;;;;1.62;100.00;99165.69;10404274;28;20508;-81
2024/02/08 07:55:20;;;;;;;39.15;16.98;;;;;;;1.67;100.00;99147.72;10391462;28;20053;-79
2024/02/08 08:00:41;;;;;;;33.63;16.98;;;;;;;1.66;100.00;99146.03;10380427;28;20211;-80
2024/02/08 08:05:55;;;;;;;39.33;17.30;;;;;;;1.67;100.00;99140.66;10404222;28;20041;-80
2024/02/08 08:11:02;;;;;;;40.53;18.80;;;;;;;1.69;100.00;99133.44;10429984;28;20144;-79
2024/02/08 08:21:27;;;;;;;52.95;20.63;;;;;;;2.37;100.00;99123.75;10401961;28;20559;-77
2024/02/08 08:26:39;;;;;;;37.83;17.27;;;;;;;2.75;100.00;99118.50;10411479;28;20690;-80
2024/02/08 08:31:51;;;;;;;31.20;15.75;;;;;;;2.81;100.00;99110.13;10410312;28;20044;-78
2024/02/08 08:37:02;;;;;;;;;;;;;;;2.91;100.00;99098.88;10448587;28;20041;-78
2024/02/08 08:42:06;;;;;;;31.35;14.68;;;;;;;2.94;100.00;99096.03;10433176;28;19956;-79
2024/02/08 08:47:09;;;;;;;32.42;15.30;;;;;;;2.93;100.00;99103.13;10412812;28;20052;-78
2024/02/08 08:52:23;;;;;;;34.17;16.33;;;;;;;3.04;100.00;99102.38;10394870;28;20140;-79
2024/02/08 08:57:26;;;;;;;35.88;18.02;;;;;;;3.06;99.77;99085.38;10393764;28;20939;-78
2024/02/08 09:02:29;;;;;;;34.97;16.17;;;;;;;3.10;99.05;99079.84;10423607;28;20063;-80
2024/02/08 09:07:37;;;;;;;36.08;16.17;;;;;;;3.23;99.28;99086.00;10404685;28;20428;-79
2024/02/08 09:12:58;;;;;;;34.42;17.00;;;;;;;3.23;98.97;99080.69;10428802;28;20056;-78
2024/02/08 09:18:08;;;;;;;36.25;16.88;;;;;;;3.14;98.61;99079.53;10403150;28;20056;-78
2024/02/08 09:23:15;;;;;;;34.47;16.75;;;;;;;3.15;98.73;99073.28;10389785;28;20508;-79
2024/02/08 09:28:26;;;;;;;32.50;17.50;;;;;;;3.16;98.52;99050.25;10443712;28;20049;-80
2024/02/08 09:33:44;;;;;;;38.27;17.63;;;;;;;3.45;99.28;99048.13;10385901;28;20077;-81
2024/02/08 09:38:50;;;;;;;34.42;16.20;;;;;;;3.73;96.28;99037.22;10450050;28;20056;-80
2024/02/08 09:43:57;;;;;;;41.53;17.08;;;;;;;3.90;95.78;99045.72;10436557;28;20132;-80
2024/02/08 09:49:12;;;;;;;40.58;17.08;;;;;;;4.20;94.77;99039.03;10419687;28;20044;-81
2024/02/08 09:54:26;;;;;;;33.45;15.52;;;;;;;4.21;93.43;99036.28;10438136;28;20128;-79
2024/02/08 09:59:59;;;;;;;38.25;16.77;;;;;;;3.99;93.18;99025.59;10435632;28;20049;-82
2024/02/08 10:05:48;;;;;;;41.53;15.73;;;;;;;4.16;93.39;99020.69;10452493;28;20044;-78
2024/02/08 10:11:11;;;;;;;33.95;14.90;;;;;;;4.19;92.76;99008.97;10456506;28;20053;-79
2024/02/08 10:16:14;;;;;;;35.13;14.90;;;;;;;4.20;92.93;98999.19;10444259;28;20341;-79
2024/02/08 10:21:17;;;;;;;36.95;16.60;;;;;;;4.53;91.82;98987.78;10433452;28;20049;-80
2024/02/08 10:26:26;;;;;;;32.00;16.10;;;;;;;4.74;90.65;98978.09;10443204;28;20056;-81
2024/02/08 10:31:29;;;;;;;32.03;13.93;;;;;;;4.26;89.51;98977.47;10437826;28;20118;-79
2024/02/08 10:36:35;;;;;;;34.20;14.18;;;;;;;4.16;91.61;98974.66;10454308;28;20056;-82
2024/02/08 10:41:57;;;;;;;37.78;15.63;;;;;;;4.35;91.57;98969.59;10447731;28;20045;-80
2024/02/08 10:47:11;;;;;;;27.60;13.18;;;;;;;4.33;90.51;98938.78;10436007;28;20041;-82
2024/02/08 10:52:20;;;;;;;31.40;12.82;;;;;;;4.24;89.52;98935.03;10445928;28;20052;-79
2024/02/08 10:57:57;;;;;;;29.95;13.27;;;;;;;4.34;89.74;98932.53;10428748;28;20037;-79
2024/02/08 11:03:08;;;;;;;27.10;12.60;;;;;;;4.01;88.83;98934.16;10438632;28;20049;-80
2024/02/08 11:08:23;;;;;;;28.33;12.90;;;;;;;4.04;89.74;98923.31;10479794;28;20070;-80
2024/02/08 11:13:37;;;;;;;27.55;12.32;;;;;;;3.94;89.76;98917.00;10460716;28;20055;-80
2024/02/08 11:18:45;;;;;;;29.27;12.32;;;;;;;4.17;90.37;98908.09;10427114;28;20041;-80
2024/02/08 11:23:52;;;;;;;25.63;11.85;;;;;;;4.38;89.65;98894.09;10457191;28;20100;-79
2024/02/08 11:29:04;;;;;;;22.08;10.75;;;;;;;4.26;88.65;98884.44;10467719;28;20051;-81
2024/02/08 11:34:13;;;;;;;22.67;9.88;;;;;;;4.15;87.69;98875.47;10453379;28;20047;-80
2024/02/08 11:39:30;;;;;;;19.17;9.27;;;;;;;3.97;87.98;98870.75;10437884;28;20059;-79
2024/02/08 11:44:43;;;;;;;18.63;9.77;;;;;;;4.04;88.01;98856.03;10421475;28;20049;-79
2024/02/08 11:49:54;;;;;;;18.95;9.45;;;;;;;3.81;88.47;98858.66;10438078;28;20564;-80
2024/02/08 11:55:05;;;;;;;15.50;8.82;;;;;;;4.02;87.43;98837.53;10440676;28;20712;-79
2024/02/08 12:00:20;;;;;;;18.13;8.90;;;;;;;3.72;88.40;98828.34;10446539;28;20266;-80
2024/02/08 12:05:24;;;;;;;18.35;9.05;;;;;;;3.71;89.12;98821.34;10444401;28;20053;-81
2024/02/08 12:10:27;;;;;;;16.33;9.20;;;;;;;3.86;88.96;98827.25;10442585;28;20085;-82
2024/02/08 12:15:34;;;;;;;20.92;8.88;;;;;;;3.84;89.10;98817.72;10446673;28;20520;-81
2024/02/08 12:20:37;;;;;;;20.13;9.48;;;;;;;3.80;88.64;98800.34;10450573;28;20056;-82
2024/02/08 12:25:42;;;;;;;21.40;9.68;;;;;;;3.72;88.94;98792.97;10443733;28;20137;-81
2024/02/08 12:30:50;;;;;;;15.80;8.18;;;;;;;3.72;88.51;98788.50;10446238;28;20098;-79
2024/02/08 12:35:54;;;;;;;18.20;8.45;;;;;;;3.66;88.91;98783.69;10450716;28;20166;-81
2024/02/08 12:41:01;;;;;;;16.58;7.90;;;;;;;3.80;88.84;98790.56;10457642;28;20048;-81
2024/02/08 12:46:07;;;;;;;22.23;8.55;;;;;;;3.86;88.99;98798.03;10431345;28;20045;-80
2024/02/08 12:51:13;;;;;;;18.10;8.70;;;;;;;3.72;89.64;98793.81;10457393;28;20044;-81
2024/02/08 12:56:20;;;;;;;20.45;9.82;;;;;;;3.82;89.70;98786.00;10449610;28;20106;-78
2024/02/08 13:01:25;;;;;;;20.40;8.68;;;;;;;3.83;90.31;98781.50;10435240;28;20432;-80
2024/02/08 13:06:28;;;;;;;21.25;8.38;;;;;;;3.47;93.03;98765.66;10451673;28;20049;-80
2024/02/08 13:11:31;;;;;;;21.95;8.85;;;;;;;3.45;95.20;98756.97;10445340;28;20155;-79
2024/02/08 13:16:36;;;;;;;16.90;9.15;;;;;;;3.05;99.66;98760.03;10451458;28;21538;-80
2024/02/08 13:21:43;;;;;;;24.45;10.20;;;;;;;2.79;100.00;98746.06;10445154;28;20052;-81
2024/02/08 13:26:50;;;;;;;26.45;12.27;;;;;;;2.67;100.00;98754.97;10452764;28;20164;-82
2024/02/08 13:31:59;;;;;;;23.27;11.00;;;;;;;2.66;100.00;98747.09;10447853;28;20052;-82
2024/02/08 13:37:03;;;;;;;30.38;14.73;;;;;;;2.42;100.00;98750.59;10435035;28;20041;-82
2024/02/08 13:42:09;;;;;;;26.75;12.10;;;;;;;2.24;100.00;98747.47;10420204;28;20413;-81
2024/02/08 13:47:14;;;;;;;17.83;9.25;;;;;;;2.27;100.00;98731.34;10420091;28;20068;-82
2024/02/08 13:52:30;;;;;;;23.77;10.20;;;;;;;2.27;100.00;98727.84;10429544;28;20040;-82
2024/02/08 13:57:34;;;;;;;19.95;9.40;;;;;;;2.18;100.00;98708.19;10436580;28;20057;-83
2024/02/08 14:02:39;;;;;;;19.50;8.20;;;;;;;1.94;100.00;98703.69;10421668;28;21247;-82
2024/02/08 14:07:43;;;;;;;15.50;8.07;;;;;;;2.04;100.00;98717.13;10437220;28;20059;-82
2024/02/08 14:12:48;;;;;;;12.75;7.43;;;;;;;1.87;100.00;98712.22;10405886;28;20059;-82
2024/02/08 14:17:55;;;;;;;13.85;6.20;;;;;;;1.74;100.00;98706.94;10411764;28;20528;-83
2024/02/08 14:23:00;;;;;;;21.08;7.55;;;;;;;1.73;100.00;98706.09;10419727;28;20044;-79
2024/02/08 14:28:09;;;;;;;19.35;7.78;;;;;;;1.93;100.00;98691.41;10430823;28;20045;-82
2024/02/08 14:33:19;;;;;;;25.15;12.02;;;;;;;1.89;100.00;98659.97;10401422;28;20139;-81
2024/02/08 14:38:22;;;;;;;18.77;8.43;;;;;;;1.93;100.00;98662.28;10408148;28;20058;-81
2024/02/08 14:43:31;;;;;;;19.98;9.30;;;;;;;1.98;100.00;98656.66;10444183;28;20044;-81
2024/02/08 14:48:38;;;;;;;17.73;9.25;;;;;;;1.91;100.00;98652.75;10443927;28;20575;-80
2024/02/08 14:53:41;;;;;;;20.23;9.18;;;;;;;1.94;100.00;98642.78;10447025;28;20063;-81
2024/02/08 14:58:56;;;;;;;18.50;9.32;;;;;;;1.92;100.00;98634.13;10466166;28;20428;-81
2024/02/08 15:04:01;;;;;;;16.52;7.90;;;;;;;1.72;100.00;98616.19;10442470;28;20048;-82
2024/02/08 15:09:47;;;;;;;12.88;6.38;;;;;;;1.67;100.00;98602.44;10449950;28;20049;-80
2024/02/08 15:14:35;;;;;;;11.07;5.45;;;;;;;1.61;100.00;98600.25;10442861;28;20059;-79
2024/02/08 15:19:45;;;;;;;11.18;4.88;;;;;;;1.29;100.00;98579.59;10460397;28;20511;-79
2024/02/08 15:24:49;;;;;;;11.73;4.70;;;;;;;1.36;100.00;98574.72;10446272;28;20608;-80
2024/02/08 15:30:05;;;;;;;11.23;4.00;;;;;;;1.37;100.00;98555.22;10453518;28;20052;-80
2024/02/08 15:35:22;;;;;;;9.93;3.78;;;;;;;1.40;100.00;98555.00;10446010;28;20420;-81
2024/02/08 15:40:26;;;;;;;10.05;4.80;;;;;;;1.35;100.00;98546.59;10426432;28;20068;-79
2024/02/08 15:45:29;;;;;;;9.05;3.75;;;;;;;1.27;100.00;98536.53;10429953;28;20146;-80
2024/02/08 15:50:36;;;;;;;11.13;4.00;;;;;;;1.46;100.00;98531.59;10410106;28;20049;-80
2024/02/08 15:55:40;;;;;;;10.00;4.60;;;;;;;1.42;100.00;98510.78;10410578;28;20040;-79
2024/02/08 16:06:41;;;;;;;10.77;5.10;;;;;;;1.36;100.00;98490.06;10403628;28;20075;-80
2024/02/08 16:11:30;;;;;;;7.75;4.88;;;;;;;1.25;100.00;98473.16;10403152;28;20049;-78
2024/02/08 16:16:34;;;;;;;9.13;5.60;;;;;;;1.31;100.00;98455.16;10429573;28;20036;-77
2024/02/08 16:21:41;;;;;;;10.02;5.25;;;;;;;1.34;100.00;98447.00;10451469;28;20167;-79
2024/02/08 16:26:52;;;;;;;10.88;6.13;;;;;;;1.40;100.00;98446.53;10443761;28;20058;-79
2024/02/08 16:31:56;;;;;;;7.20;3.80;;;;;;;1.41;100.00;98448.25;10413770;28;20553;-78
2024/02/08 16:37:26;;;;;;;8.80;4.03;;;;;;;1.45;100.00;98445.25;10443622;28;20045;-79
2024/02/08 16:42:34;;;;;;;7.18;4.20;;;;;;;1.38;100.00;98432.59;10445531;28;20076;-80
2024/02/08 16:47:51;;;;;;;11.75;5.75;;;;;;;1.47;100.00;98422.16;10443862;28;20056;-79
2024/02/08 16:52:59;;;;;;;7.78;5.00;;;;;;;1.60;100.00;98418.59;10444117;28;21174;-82
2024/02/08 16:58:16;;;;;;;6.82;4.28;;;;;;;1.66;100.00;98396.97;10435212;28;20055;-81
2024/02/08 17:03:50;;;;;;;9.10;6.22;;;;;;;1.65;100.00;98392.66;10439088;28;20052;-78
2024/02/08 17:09:23;;;;;;;9.93;5.60;;;;;;;1.64;100.00;98391.78;10445497;28;20108;-80
2024/02/08 17:14:46;;;;;;;16.35;8.23;;;;;;;1.62;100.00;98383.13;10459739;28;20427;-80
2024/02/08 17:19:57;;;;;;;11.85;6.20;;;;;;;1.67;100.00;98377.47;10405217;28;20112;-80
2024/02/08 17:25:23;;;;;;;8.57;5.82;;;;;;;1.71;100.00;98379.78;10450659;28;20052;-81
2024/02/08 17:30:51;;;;;;;7.53;5.38;;;;;;;1.72;100.00;98356.78;10450125;28;20048;-81
2024/02/08 17:35:50;;;;;;;8.18;5.13;;;;;;;1.66;100.00;98341.38;10455227;28;20054;-80
2024/02/08 17:40:55;;;;;;;8.32;4.20;;;;;;;1.68;100.00;98334.19;10454009;28;20059;-80
2024/02/08 17:46:02;;;;;;;7.47;3.92;;;;;;;1.74;100.00;98328.41;10470021;28;20048;-81
2024/02/08 17:51:11;;;;;;;4.55;3.10;;;;;;;1.72;100.00;98335.63;10456702;28;20044;-80
2024/02/08 17:56:18;;;;;;;9.07;3.78;;;;;;;1.77;100.00;98335.28;10468245;28;20052;-80
2024/02/08 18:01:31;;;;;;;4.20;2.38;;;;;;;1.77;100.00;98329.97;10444406;28;20048;-80
2024/02/08 18:06:36;;;;;;;2.88;2.20;;;;;;;1.76;100.00;98337.06;10434217;28;20055;-79
2024/02/08 18:11:42;;;;;;;9.77;2.88;;;;;;;1.78;100.00;98316.59;10464352;28;20033;-79
2024/02/08 18:16:45;;;;;;;4.95;2.65;;;;;;;1.77;100.00;98312.28;10481862;28;20520;-79
2024/02/08 18:21:51;;;;;;;3.33;2.50;;;;;;;1.71;100.00;98303.00;10456878;28;20060;-79
2024/02/08 18:27:00;;;;;;;4.72;2.60;;;;;;;1.79;100.00;98283.06;10486526;28;20062;-80
2024/02/08 18:32:06;;;;;;;3.65;2.45;;;;;;;1.73;100.00;98287.03;10454400;28;20076;-82
2024/02/08 18:37:11;;;;;;;3.63;2.55;;;;;;;1.68;100.00;98274.16;10426943;28;20045;-81
2024/02/08 18:42:20;;;;;;;3.28;2.40;;;;;;;1.67;100.00;98261.88;10415746;28;20067;-81
2024/02/08 18:47:28;;;;;;;6.45;4.68;;;;;;;1.64;100.00;98250.69;10409808;28;20117;-79
2024/02/08 18:52:33;;;;;;;3.70;2.92;;;;;;;1.54;100.00;98232.03;10396988;28;20053;-81
2024/02/08 18:57:40;;;;;;;2.65;2.45;;;;;;;1.36;100.00;98247.53;10407246;28;20068;-80
2024/02/08 19:02:44;;;;;;;3.97;2.40;;;;;;;1.37;100.00;98241.28;10413366;28;20122;-80
2024/02/08 19:07:49;;;;;;;3.45;2.65;;;;;;;1.39;100.00;98236.69;10408101;28;20090;-79
2024/02/08 19:12:54;;;;;;;4.78;2.60;;;;;;;1.53;100.00;98226.84;10400475;28;21213;-80
2024/02/08 19:17:58;;;;;;;4.50;3.97;;;;;;;1.40;100.00;98232.25;10404773;28;20136;-81
2024/02/08 19:23:08;;;;;;;4.18;3.63;;;;;;;1.49;100.00;98234.19;10410164;28;20429;-79
2024/02/08 19:28:14;;;;;;;3.17;2.85;;;;;;;1.48;100.00;98227.19;10444685;28;20052;-81
2024/02/08 19:33:23;;;;;;;2.60;2.40;;;;;;;1.63;100.00;98222.53;10451834;28;20072;-81
2024/02/08 19:38:26;;;;;;;4.65;3.15;;;;;;;1.68;100.00;98218.56;10448434;28;20053;-79
2024/02/08 19:43:35;;;;;;;4.05;3.10;;;;;;;1.72;100.00;98205.91;10449841;28;20058;-81
2024/02/08 19:48:41;;;;;;;5.35;3.20;;;;;;;1.55;100.00;98190.53;10451655;28;20191;-79
2024/02/08 19:53:44;;;;;;;3.15;2.50;;;;;;;1.62;100.00;98200.53;10423181;28;20118;-80
2024/02/08 19:58:52;;;;;;;3.30;2.90;;;;;;;1.70;100.00;98189.31;10453660;28;20055;-81
2024/02/08 20:04:01;;;;;;;3.83;2.70;;;;;;;1.84;100.00;98173.19;10443881;28;20175;-80
2024/02/08 20:09:07;;;;;;;4.72;3.60;;;;;;;1.55;100.00;98164.09;10430503;28;20040;-79
2024/02/08 20:14:13;;;;;;;4.93;3.17;;;;;;;1.77;100.00;98150.81;10428866;28;21176;-79
2024/02/08 20:19:17;;;;;;;5.32;4.55;;;;;;;1.84;100.00;98151.19;10430008;28;20060;-78
2024/02/08 20:24:23;;;;;;;7.10;5.10;;;;;;;1.82;100.00;98150.47;10435432;28;20167;-80
2024/02/08 20:29:28;;;;;;;11.77;9.85;;;;;;;1.85;100.00;98160.78;10448677;28;21224;-80
2024/02/08 20:34:32;;;;;;;7.57;6.28;;;;;;;1.92;100.00;98144.31;10453349;28;20075;-79
2024/02/08 20:39:35;;;;;;;3.58;3.28;;;;;;;1.93;100.00;98140.69;10428371;28;20059;-80
2024/02/08 20:44:43;;;;;;;3.53;3.22;;;;;;;2.04;100.00;98158.34;10417459;28;20056;-80
2024/02/08 20:49:47;;;;;;;3.55;3.25;;;;;;;1.94;100.00;98130.91;10400604;28;20049;-81
2024/02/08 20:54:53;;;;;;;4.05;3.40;;;;;;;1.88;100.00;98142.84;10411605;28;20127;-79
2024/02/08 21:00:04;;;;;;;4.15;3.42;;;;;;;1.95;100.00;98133.47;10441113;28;20068;-79
2024/02/08 21:05:07;;;;;;;4.07;3.67;;;;;;;2.06;100.00;98124.63;10426323;28;21203;-80
2024/02/08 21:10:11;;;;;;;4.32;3.13;;;;;;;2.14;100.00;98116.91;10426440;28;20077;-81
2024/02/08 21:15:17;;;;;;;4.05;3.65;;;;;;;2.08;100.00;98117.38;10435624;28;20049;-80
2024/02/08 21:20:20;;;;;;;3.78;3.20;;;;;;;2.02;100.00;98114.41;10423434;28;20095;-80
2024/02/08 21:25:24;;;;;;;3.78;3.47;;;;;;;2.09;100.00;98112.97;10427073;28;20048;-81
2024/02/08 21:30:31;;;;;;;5.32;3.78;;;;;;;2.15;100.00;98099.19;10427246;28;20051;-82
2024/02/08 21:35:34;;;;;;;4.88;3.78;;;;;;;2.11;100.00;98087.16;10429896;28;21108;-81
2024/02/08 21:40:40;;;;;;;4.28;3.70;;;;;;;2.16;100.00;98079.69;10440769;28;20056;-82
2024/02/08 21:45:46;;;;;;;6.20;3.85;;;;;;;2.15;100.00;98080.66;10438534;28;20063;-81
2024/02/08 21:50:51;;;;;;;5.30;4.78;;;;;;;2.12;100.00;98071.16;10440816;28;20059;-82
2024/02/08 21:55:55;;;;;;;7.45;4.88;;;;;;;2.08;100.00;98058.28;10457988;28;20068;-82
2024/02/08 22:01:00;;;;;;;6.43;5.43;;;;;;;2.24;100.00;98056.06;10442700;28;20415;-82
2024/02/08 22:06:21;;;;;;;5.43;4.93;;;;;;;2.36;100.00;98062.16;10439951;28;20049;-80
2024/02/08 22:11:24;;;;;;;7.35;5.93;;;;;;;2.33;100.00;98043.84;10436175;28;20060;-80
2024/02/08 22:16:29;;;;;;;6.80;5.43;;;;;;;2.44;100.00;98059.69;10450268;28;20891;-77
2024/02/08 22:21:32;;;;;;;7.72;6.18;;;;;;;2.42;100.00;98040.44;10432410;28;20141;-81
2024/02/08 22:26:35;;;;;;;6.97;5.57;;;;;;;2.47;100.00;98040.88;10406044;28;20417;-81
2024/02/08 22:31:40;;;;;;;6.03;5.22;;;;;;;2.53;100.00;98040.38;10402231;28;20057;-80
2024/02/08 22:36:43;;;;;;;6.45;5.25;;;;;;;2.49;100.00;98022.19;10435543;28;20095;-80
2024/02/08 22:41:49;;;;;;;5.05;4.55;;;;;;;2.62;100.00;98025.50;10427600;28;20542;-80
2024/02/08 22:46:55;;;;;;;5.72;5.13;;;;;;;2.61;100.00;98024.66;10417560;28;20041;-79
2024/02/08 22:52:00;;;;;;;5.80;5.22;;;;;;;2.64;100.00;98012.97;10379551;28;20505;-80
2024/02/08 22:57:03;;;;;;;5.43;4.68;;;;;;;2.67;100.00;98015.34;10379981;28;20073;-80
2024/02/08 23:02:08;;;;;;;5.20;4.70;;;;;;;2.81;100.00;98004.38;10398482;28;20144;-80
2024/02/08 23:07:11;;;;;;;6.70;5.47;;;;;;;2.84;100.00;98003.28;10390236;28;20089;-81
2024/02/08 23:12:16;;;;;;;7.38;6.30;;;;;;;2.89;100.00;97985.16;10429577;28;20551;-81
2024/02/08 23:17:20;;;;;;;7.03;6.05;;;;;;;2.91;100.00;97982.38;10443040;28;20054;-80
2024/02/08 23:22:23;;;;;;;8.60;6.97;;;;;;;2.94;100.00;97975.00;10454741;28;20705;-80
2024/02/08 23:27:29;;;;;;;9.45;6.93;;;;;;;2.97;100.00;97965.94;10434802;28;20109;-79
2024/02/08 23:32:35;;;;;;;9.20;7.60;;;;;;;2.99;100.00;97956.88;10441094;28;20060;-82
2024/02/08 23:37:38;;;;;;;8.90;6.80;;;;;;;3.03;100.00;97957.44;10448867;28;20041;-81
2024/02/08 23:42:42;;;;;;;11.18;7.80;;;;;;;3.11;100.00;97960.25;10415760;28;20056;-82
2024/02/08 23:47:47;;;;;;;10.20;7.35;;;;;;;3.19;100.00;97954.28;10401254;28;20056;-84
2024/02/08 23:52:52;;;;;;;10.60;7.68;;;;;;;3.26;100.00;97952.72;10399983;28;21165;-79
2024/02/08 23:57:57;;;;;;;11.65;7.93;;;;;;;3.35;100.00;97956.41;10423704;28;20130;-80
